Butts AAF (Fort Carson) Air Field Fort Carson US
ICAO: KFCS
IATA: FCS
Category: Medium
Scheduled Services: No

Elevation: 5838 ft
TransAlt. 18000 ft.

Airport Communications:
SPRINGS APP/DEP:124
FLT FLW:38.35
ATIS:108.8
PMSV METRO:44.1
PTD/OPS:141.15
TWR:125.5

KFCS Zoom In..

Runways:

(A) RW 04 length 2307 ft width 75 ft
---- / hdg 39

(B) RW 13 length 4572 ft width 75 ft
---- / hdg 126

(C) RW 22 length 2307 ft width 75 ft
---- / hdg 219

(D) RW 31 length 4572 ft width 75 ft
---- / hdg 306

Location; KFCS
Day. 21 / Time. 23.58 Zulu
* Altimeter: 29.82
* Temperature: -04° c. -24.8°f.
* Wind from: 360° Speed 21 kn with Gusts up to 31 kn.
Dewpoint: -10° c.
Visibility: 10 Statute Miles.
Clouds: Scattered 12000 ft.

KFCS 212358Z 36021G31KT 10SM SCT120 M04/M10 A2982 RMK AO2A PK WND 34043/06 SLP157 60000 T10401104 11019 21040 52034 $


Wind From 360°
Speed 21 kn.

jpsM music video
CHECK IT OUT

jpsM - It Moves..

 
jpsmedia.com for Web Design  worldairports.se 2018   terms of use